sensor_id;sensor_type;location;lat;lon;timestamp;pressure;altitude;pressure_sealevel;temperature
64600;BMP280;6553;48.412;9.514;2022-08-11T00:00:06;72200.91;;;24.90
64600;BMP280;6553;48.412;9.514;2022-08-11T00:02:40;72203.84;;;24.88
64600;BMP280;6553;48.412;9.514;2022-08-11T00:05:12;72201.59;;;24.88
64600;BMP280;6553;48.412;9.514;2022-08-11T00:07:53;72194.94;;;24.87
64600;BMP280;6553;48.412;9.514;2022-08-11T00:10:27;72196.00;;;24.88
64600;BMP280;6553;48.412;9.514;2022-08-11T00:13:04;72197.19;;;24.87
64600;BMP280;6553;48.412;9.514;2022-08-11T00:15:42;72198.91;;;24.86
64600;BMP280;6553;48.412;9.514;2022-08-11T00:18:11;72195.06;;;24.85
64600;BMP280;6553;48.412;9.514;2022-08-11T00:20:41;72192.28;;;24.85
64600;BMP280;6553;48.412;9.514;2022-08-11T00:23:15;72196.66;;;24.86
64600;BMP280;6553;48.412;9.514;2022-08-11T00:25:48;72193.34;;;24.86
64600;BMP280;6553;48.412;9.514;2022-08-11T00:28:32;72197.88;;;24.85
64600;BMP280;6553;48.412;9.514;2022-08-11T00:31:08;72196.66;;;24.86
64600;BMP280;6553;48.412;9.514;2022-08-11T00:33:45;72197.88;;;24.85
64600;BMP280;6553;48.412;9.514;2022-08-11T00:36:16;72193.88;;;24.86
64600;BMP280;6553;48.412;9.514;2022-08-11T00:38:45;72195.59;;;24.85
64600;BMP280;6553;48.412;9.514;2022-08-11T00:53:37;72186.31;;;24.82
64600;BMP280;6553;48.412;9.514;2022-08-11T01:31:00;72192.00;;;24.79
64600;BMP280;6553;48.412;9.514;2022-08-11T01:42:51;72187.09;;;24.77
64600;BMP280;6553;48.412;9.514;2022-08-11T01:46:09;72187.63;;;24.77
64600;BMP280;6553;48.412;9.514;2022-08-11T01:48:41;72189.91;;;24.77
64600;BMP280;6553;48.412;9.514;2022-08-11T01:51:26;72189.91;;;24.77
64600;BMP280;6553;48.412;9.514;2022-08-11T01:54:18;72187.22;;;24.74
64600;BMP280;6553;48.412;9.514;2022-08-11T01:57:45;72182.69;;;24.75
64600;BMP280;6553;48.412;9.514;2022-08-11T02:00:28;72188.97;;;24.73
64600;BMP280;6553;48.412;9.514;2022-08-11T02:03:10;72186.69;;;24.74
64600;BMP280;6553;48.412;9.514;2022-08-11T02:06:02;72181.09;;;24.74
64600;BMP280;6553;48.412;9.514;2022-08-11T02:09:03;72183.91;;;24.74
64600;BMP280;6553;48.412;9.514;2022-08-11T02:11:36;72179.50;;;24.72
64600;BMP280;6553;48.412;9.514;2022-08-11T02:14:28;72183.38;;;24.73
64600;BMP280;6553;48.412;9.514;2022-08-11T02:17:21;72181.66;;;24.74
64600;BMP280;6553;48.412;9.514;2022-08-11T02:20:22;72185.09;;;24.72
64600;BMP280;6553;48.412;9.514;2022-08-11T02:23:20;72184.03;;;24.71
64600;BMP280;6553;48.412;9.514;2022-08-11T02:26:19;72186.16;;;24.73
64600;BMP280;6553;48.412;9.514;2022-08-11T02:29:08;72185.09;;;24.72
64600;BMP280;6553;48.412;9.514;2022-08-11T02:40:53;72186.84;;;24.71
64600;BMP280;6553;48.412;9.514;2022-08-11T02:43:35;72177.91;;;24.71
64600;BMP280;6553;48.412;9.514;2022-08-11T02:49:04;72181.91;;;24.69
64600;BMP280;6553;48.412;9.514;2022-08-11T02:54:35;72182.97;;;24.70
64600;BMP280;6553;48.412;9.514;2022-08-11T02:57:55;72176.31;;;24.69
64600;BMP280;6553;48.412;9.514;2022-08-11T03:00:25;72179.13;;;24.69
64600;BMP280;6553;48.412;9.514;2022-08-11T03:06:21;72180.84;;;24.68
64600;BMP280;6553;48.412;9.514;2022-08-11T03:11:51;72179.13;;;24.69
64600;BMP280;6553;48.412;9.514;2022-08-11T03:14:49;72178.59;;;24.69
64600;BMP280;6553;48.412;9.514;2022-08-11T03:17:41;72179.78;;;24.67
64600;BMP280;6553;48.412;9.514;2022-08-11T03:20:26;72180.84;;;24.68
64600;BMP280;6553;48.412;9.514;2022-08-11T03:23:28;72175.94;;;24.66
64600;BMP280;6553;48.412;9.514;2022-08-11T03:26:36;72175.25;;;24.68
64600;BMP280;6553;48.412;9.514;2022-08-11T03:29:18;72179.78;;;24.67
64600;BMP280;6553;48.412;9.514;2022-08-11T03:31:56;72178.19;;;24.66
64600;BMP280;6553;48.412;9.514;2022-08-11T03:34:26;72170.88;;;24.67
64600;BMP280;6553;48.412;9.514;2022-08-11T03:37:30;72176.44;;;24.67
64600;BMP280;6553;48.412;9.514;2022-08-11T03:40:42;72178.19;;;24.66
64600;BMP280;6553;48.412;9.514;2022-08-11T03:43:55;72169.28;;;24.65
64600;BMP280;6553;48.412;9.514;2022-08-11T03:50:03;72173.16;;;24.66
64600;BMP280;6553;48.412;9.514;2022-08-11T04:16:40;72172.22;;;24.63
64600;BMP280;6553;48.412;9.514;2022-08-11T04:41:52;72173.38;;;24.61
64600;BMP280;6553;48.412;9.514;2022-08-11T04:58:13;72167.94;;;24.59
64600;BMP280;6553;48.412;9.514;2022-08-11T05:01:38;72166.75;;;24.60
64600;BMP280;6553;48.412;9.514;2022-08-11T05:04:37;72171.78;;;24.60
64600;BMP280;6553;48.412;9.514;2022-08-11T05:08:06;72168.50;;;24.59
64600;BMP280;6553;48.412;9.514;2022-08-11T05:11:16;72162.38;;;24.59
64600;BMP280;6553;48.412;9.514;2022-08-11T05:13:50;72167.41;;;24.58
64600;BMP280;6553;48.412;9.514;2022-08-11T05:16:53;72165.16;;;24.59
64600;BMP280;6553;48.412;9.514;2022-08-11T05:19:45;72166.91;;;24.58
64600;BMP280;6553;48.412;9.514;2022-08-11T05:22:32;72166.91;;;24.58
64600;BMP280;6553;48.412;9.514;2022-08-11T05:25:29;72170.22;;;24.58
64600;BMP280;6553;48.412;9.514;2022-08-11T05:28:33;72168.50;;;24.59
64600;BMP280;6553;48.412;9.514;2022-08-11T05:31:24;72166.34;;;24.57
64600;BMP280;6553;48.412;9.514;2022-08-11T05:34:20;72162.50;;;24.56
64600;BMP280;6553;48.412;9.514;2022-08-11T05:37:10;72166.91;;;24.58
64600;BMP280;6553;48.412;9.514;2022-08-11T05:39:50;72169.69;;;24.58
64600;BMP280;6553;48.412;9.514;2022-08-11T05:42:47;72167.03;;;24.55
64600;BMP280;6553;48.412;9.514;2022-08-11T05:45:33;72162.50;;;24.56
64600;BMP280;6553;48.412;9.514;2022-08-11T05:48:19;72168.63;;;24.57
64600;BMP280;6553;48.412;9.514;2022-08-11T05:51:06;72160.78;;;24.57
64600;BMP280;6553;48.412;9.514;2022-08-11T05:53:55;72167.03;;;24.55
64600;BMP280;6553;48.412;9.514;2022-08-11T05:57:01;72164.75;;;24.56
64600;BMP280;6553;48.412;9.514;2022-08-11T05:59:28;72161.97;;;24.56
64600;BMP280;6553;48.412;9.514;2022-08-11T06:02:05;72168.06;;;24.56
64600;BMP280;6553;48.412;9.514;2022-08-11T06:04:32;72164.22;;;24.55
64600;BMP280;6553;48.412;9.514;2022-08-11T06:07:04;72162.50;;;24.56
64600;BMP280;6553;48.412;9.514;2022-08-11T06:09:49;72165.44;;;24.54
64600;BMP280;6553;48.412;9.514;2022-08-11T06:12:24;72163.69;;;24.55
64600;BMP280;6553;48.412;9.514;2022-08-11T06:14:56;72166.47;;;24.55
64600;BMP280;6553;48.412;9.514;2022-08-11T06:17:26;72163.69;;;24.55
64600;BMP280;6553;48.412;9.514;2022-08-11T06:20:08;72162.63;;;24.54
64600;BMP280;6553;48.412;9.514;2022-08-11T06:22:58;72165.28;;;24.56
64600;BMP280;6553;48.412;9.514;2022-08-11T06:25:33;72160.91;;;24.55
64600;BMP280;6553;48.412;9.514;2022-08-11T06:28:04;72165.28;;;24.56
64600;BMP280;6553;48.412;9.514;2022-08-11T06:30:41;72160.38;;;24.54
64600;BMP280;6553;48.412;9.514;2022-08-11T06:33:14;72168.63;;;24.57
64600;BMP280;6553;48.412;9.514;2022-08-11T06:36:39;72164.75;;;24.56
64600;BMP280;6553;48.412;9.514;2022-08-11T06:39:27;72166.47;;;24.55
64600;BMP280;6553;48.412;9.514;2022-08-11T06:42:09;72165.44;;;24.54
64600;BMP280;6553;48.412;9.514;2022-08-11T06:45:04;72163.69;;;24.55
64600;BMP280;6553;48.412;9.514;2022-08-11T06:47:34;72171.53;;;24.54
64600;BMP280;6553;48.412;9.514;2022-08-11T06:50:01;72159.84;;;24.54
64600;BMP280;6553;48.412;9.514;2022-08-11T06:52:46;72164.75;;;24.56
64600;BMP280;6553;48.412;9.514;2022-08-11T06:55:21;72162.75;;;24.51
64600;BMP280;6553;48.412;9.514;2022-08-11T06:58:19;72163.16;;;24.54
64600;BMP280;6553;48.412;9.514;2022-08-11T07:01:26;72156.50;;;24.53
64600;BMP280;6553;48.412;9.514;2022-08-11T07:04:04;72163.16;;;24.54
64600;BMP280;6553;48.412;9.514;2022-08-11T07:07:00;72161.03;;;24.52
64600;BMP280;6553;48.412;9.514;2022-08-11T07:10:15;72164.34;;;24.53
64600;BMP280;6553;48.412;9.514;2022-08-11T07:13:04;72162.75;;;24.51
64600;BMP280;6553;48.412;9.514;2022-08-11T07:15:53;72165.97;;;24.54
64600;BMP280;6553;48.412;9.514;2022-08-11T07:18:28;72165.97;;;24.54
64600;BMP280;6553;48.412;9.514;2022-08-11T07:21:30;72157.59;;;24.54
64600;BMP280;6553;48.412;9.514;2022-08-11T07:24:19;72162.09;;;24.53
64600;BMP280;6553;48.412;9.514;2022-08-11T07:27:11;72165.97;;;24.54
64600;BMP280;6553;48.412;9.514;2022-08-11T07:30:00;72164.88;;;24.53
64600;BMP280;6553;48.412;9.514;2022-08-11T07:32:33;72159.84;;;24.54
64600;BMP280;6553;48.412;9.514;2022-08-11T07:35:11;72165.44;;;24.54
64600;BMP280;6553;48.412;9.514;2022-08-11T07:37:52;72164.88;;;24.53
64600;BMP280;6553;48.412;9.514;2022-08-11T07:40:23;72165.44;;;24.54
64600;BMP280;6553;48.412;9.514;2022-08-11T07:42:52;72165.97;;;24.54
64600;BMP280;6553;48.412;9.514;2022-08-11T07:45:19;72165.97;;;24.54
64600;BMP280;6553;48.412;9.514;2022-08-11T07:48:06;72170.47;;;24.53
64600;BMP280;6553;48.412;9.514;2022-08-11T07:50:51;72161.56;;;24.53
64600;BMP280;6553;48.412;9.514;2022-08-11T07:53:36;72167.56;;;24.56
64600;BMP280;6553;48.412;9.514;2022-08-11T07:56:04;72170.22;;;24.58
64600;BMP280;6553;48.412;9.514;2022-08-11T07:58:33;72182.97;;;24.70
64600;BMP280;6553;48.412;9.514;2022-08-11T08:01:24;72183.25;;;24.76
64600;BMP280;6553;48.412;9.514;2022-08-11T08:04:13;72187.63;;;24.77
64600;BMP280;6553;48.412;9.514;2022-08-11T08:07:00;72190.81;;;24.81
64600;BMP280;6553;48.412;9.514;2022-08-11T08:09:47;72195.22;;;24.82
64600;BMP280;6553;48.412;9.514;2022-08-11T08:12:33;72196.28;;;24.83
64600;BMP280;6553;48.412;9.514;2022-08-11T08:15:20;72194.56;;;24.84
64600;BMP280;6553;48.412;9.514;2022-08-11T08:18:07;72196.13;;;24.86
64600;BMP280;6553;48.412;9.514;2022-08-11T08:20:44;72201.59;;;24.88
64600;BMP280;6553;48.412;9.514;2022-08-11T08:23:11;72196.00;;;24.88
64600;BMP280;6553;48.412;9.514;2022-08-11T08:25:41;72202.13;;;24.89
64600;BMP280;6553;48.412;9.514;2022-08-11T08:28:14;72205.84;;;24.92
64600;BMP280;6553;48.412;9.514;2022-08-11T08:30:42;72204.09;;;24.93
64600;BMP280;6553;48.412;9.514;2022-08-11T08:33:30;72204.09;;;24.93
64600;BMP280;6553;48.412;9.514;2022-08-11T08:36:03;72206.91;;;24.93
64600;BMP280;6553;48.412;9.514;2022-08-11T08:39:01;72209.03;;;24.95
64600;BMP280;6553;48.412;9.514;2022-08-11T08:41:31;72213.28;;;24.99
64600;BMP280;6553;48.412;9.514;2022-08-11T08:44:07;72212.09;;;25.01
64600;BMP280;6553;48.412;9.514;2022-08-11T08:46:41;72207.69;;;24.99
64600;BMP280;6553;48.412;9.514;2022-08-11T08:49:13;72211.41;;;25.03
64600;BMP280;6553;48.412;9.514;2022-08-11T08:51:42;72215.41;;;25.01
64600;BMP280;6553;48.412;9.514;2022-08-11T08:54:19;72217.53;;;25.03
64600;BMP280;6553;48.412;9.514;2022-08-11T08:56:48;72215.94;;;25.02
64600;BMP280;6553;48.412;9.514;2022-08-11T08:59:23;72211.56;;;25.00
64600;BMP280;6553;48.412;9.514;2022-08-11T09:02:00;72219.78;;;25.03
64600;BMP280;6553;48.412;9.514;2022-08-11T09:04:28;72214.75;;;25.03
64600;BMP280;6553;48.412;9.514;2022-08-11T09:06:59;72218.06;;;25.04
64600;BMP280;6553;48.412;9.514;2022-08-11T09:09:28;72215.28;;;25.04
64600;BMP280;6553;48.412;9.514;2022-08-11T09:11:55;72215.28;;;25.04
64600;BMP280;6553;48.412;9.514;2022-08-11T09:14:26;72218.06;;;25.04
64600;BMP280;6553;48.412;9.514;2022-08-11T09:17:13;72219.66;;;25.05
64600;BMP280;6553;48.412;9.514;2022-08-11T09:19:39;72214.75;;;25.03
64600;BMP280;6553;48.412;9.514;2022-08-11T09:22:05;72214.09;;;25.05
64600;BMP280;6553;48.412;9.514;2022-08-11T09:24:51;72220.19;;;25.06
64600;BMP280;6553;48.412;9.514;2022-08-11T09:27:37;72221.94;;;25.05
64600;BMP280;6553;48.412;9.514;2022-08-11T09:30:06;72219.16;;;25.05
64600;BMP280;6553;48.412;9.514;2022-08-11T09:32:33;72216.22;;;25.07
64600;BMP280;6553;48.412;9.514;2022-08-11T09:35:01;72219.16;;;25.05
64600;BMP280;6553;48.412;9.514;2022-08-11T09:37:29;72217.94;;;25.06
64600;BMP280;6553;48.412;9.514;2022-08-11T09:40:18;72220.19;;;25.06
64600;BMP280;6553;48.412;9.514;2022-08-11T09:42:56;72219.66;;;25.05
64600;BMP280;6553;48.412;9.514;2022-08-11T09:45:46;72224.72;;;25.05
64600;BMP280;6553;48.412;9.514;2022-08-11T09:48:22;72219.16;;;25.05
64600;BMP280;6553;48.412;9.514;2022-08-11T09:50:53;72219.66;;;25.05
64600;BMP280;6553;48.412;9.514;2022-08-11T09:53:20;72217.41;;;25.06
64600;BMP280;6553;48.412;9.514;2022-08-11T09:55:48;72218.59;;;25.04
64600;BMP280;6553;48.412;9.514;2022-08-11T09:58:15;72214.75;;;25.03
64600;BMP280;6553;48.412;9.514;2022-08-11T10:00:48;72217.41;;;25.06
64600;BMP280;6553;48.412;9.514;2022-08-11T10:03:25;72218.06;;;25.04
64600;BMP280;6553;48.412;9.514;2022-08-11T10:06:03;72215.13;;;25.06
64600;BMP280;6553;48.412;9.514;2022-08-11T10:08:51;72219.66;;;25.05
64600;BMP280;6553;48.412;9.514;2022-08-11T10:11:23;72220.19;;;25.06
64600;BMP280;6553;48.412;9.514;2022-08-11T10:13:52;72224.06;;;25.07
64600;BMP280;6553;48.412;9.514;2022-08-11T10:16:40;72213.03;;;25.04
64600;BMP280;6553;48.412;9.514;2022-08-11T10:19:09;72219.16;;;25.05
64600;BMP280;6553;48.412;9.514;2022-08-11T10:21:45;72221.25;;;25.07
64600;BMP280;6553;48.412;9.514;2022-08-11T10:24:32;72221.25;;;25.07
64600;BMP280;6553;48.412;9.514;2022-08-11T10:27:17;72225.13;;;25.08
64600;BMP280;6553;48.412;9.514;2022-08-11T10:29:43;72224.06;;;25.07
64600;BMP280;6553;48.412;9.514;2022-08-11T10:32:30;72215.66;;;25.07
64600;BMP280;6553;48.412;9.514;2022-08-11T10:35:16;72222.34;;;25.08
64600;BMP280;6553;48.412;9.514;2022-08-11T10:37:45;72224.06;;;25.07
64600;BMP280;6553;48.412;9.514;2022-08-11T10:40:19;72222.88;;;25.08
64600;BMP280;6553;48.412;9.514;2022-08-11T10:42:59;72223.94;;;25.09
64600;BMP280;6553;48.412;9.514;2022-08-11T10:45:41;72218.84;;;25.10
64600;BMP280;6553;48.412;9.514;2022-08-11T10:48:30;72221.13;;;25.09
64600;BMP280;6553;48.412;9.514;2022-08-11T10:50:59;72223.94;;;25.09
64600;BMP280;6553;48.412;9.514;2022-08-11T10:53:45;72219.53;;;25.08
64600;BMP280;6553;48.412;9.514;2022-08-11T10:56:36;72213.28;;;25.10
64600;BMP280;6553;48.412;9.514;2022-08-11T10:59:26;72224.97;;;25.10
64600;BMP280;6553;48.412;9.514;2022-08-11T11:01:53;72227.78;;;25.10
64600;BMP280;6553;48.412;9.514;2022-08-11T11:07:21;72223.94;;;25.09
64600;BMP280;6553;48.412;9.514;2022-08-11T11:09:54;72216.75;;;25.08
64600;BMP280;6553;48.412;9.514;2022-08-11T11:12:43;72220.06;;;25.08
64600;BMP280;6553;48.412;9.514;2022-08-11T11:15:31;72224.97;;;25.10
64600;BMP280;6553;48.412;9.514;2022-08-11T11:18:25;72223.94;;;25.09
64600;BMP280;6553;48.412;9.514;2022-08-11T11:21:06;72221.66;;;25.10
64600;BMP280;6553;48.412;9.514;2022-08-11T11:23:42;72218.84;;;25.10
64600;BMP280;6553;48.412;9.514;2022-08-11T11:35:29;72226.06;;;25.11
64600;BMP280;6553;48.412;9.514;2022-08-11T11:37:58;72227.78;;;25.10
64600;BMP280;6553;48.412;9.514;2022-08-11T11:40:24;72223.81;;;25.12
64600;BMP280;6553;48.412;9.514;2022-08-11T11:42:55;72225.53;;;25.11
64600;BMP280;6553;48.412;9.514;2022-08-11T11:45:23;72216.75;;;25.08
64600;BMP280;6553;48.412;9.514;2022-08-11T11:47:53;72217.28;;;25.08
64600;BMP280;6553;48.412;9.514;2022-08-11T11:50:33;72228.72;;;25.14
64600;BMP280;6553;48.412;9.514;2022-08-11T11:53:06;72228.72;;;25.14
64600;BMP280;6553;48.412;9.514;2022-08-11T11:55:34;72222.59;;;25.13
64600;BMP280;6553;48.412;9.514;2022-08-11T11:58:03;72228.72;;;25.14
64600;BMP280;6553;48.412;9.514;2022-08-11T12:00:50;72231.91;;;25.17
64600;BMP280;6553;48.412;9.514;2022-08-11T12:03:36;72228.03;;;25.16
64600;BMP280;6553;48.412;9.514;2022-08-11T12:06:06;72227.00;;;25.15
64600;BMP280;6553;48.412;9.514;2022-08-11T12:08:33;72224.31;;;25.12
64600;BMP280;6553;48.412;9.514;2022-08-11T12:11:09;72223.81;;;25.12
64600;BMP280;6553;48.412;9.514;2022-08-11T12:13:59;72222.72;;;25.11
64600;BMP280;6553;48.412;9.514;2022-08-11T12:16:27;72222.03;;;25.13
64600;BMP280;6553;48.412;9.514;2022-08-11T12:18:58;72228.03;;;25.16
64600;BMP280;6553;48.412;9.514;2022-08-11T12:21:27;72231.50;;;25.14
64600;BMP280;6553;48.412;9.514;2022-08-11T12:23:56;72230.84;;;25.16
64600;BMP280;6553;48.412;9.514;2022-08-11T12:26:42;72229.78;;;25.15
64600;BMP280;6553;48.412;9.514;2022-08-11T12:29:16;72229.25;;;25.14
64600;BMP280;6553;48.412;9.514;2022-08-11T12:31:44;72226.31;;;25.17
64600;BMP280;6553;48.412;9.514;2022-08-11T12:34:14;72232.44;;;25.17
64600;BMP280;6553;48.412;9.514;2022-08-11T12:36:53;72230.84;;;25.16
64600;BMP280;6553;48.412;9.514;2022-08-11T12:39:27;72227.00;;;25.15
64600;BMP280;6553;48.412;9.514;2022-08-11T12:42:17;72237.47;;;25.17
64600;BMP280;6553;48.412;9.514;2022-08-11T12:45:10;72225.25;;;25.16
64600;BMP280;6553;48.412;9.514;2022-08-11T12:50:55;72232.56;;;25.15
64600;BMP280;6553;48.412;9.514;2022-08-11T12:56:32;72225.75;;;25.16
64600;BMP280;6553;48.412;9.514;2022-08-11T12:59:22;72228.03;;;25.16
64600;BMP280;6553;48.412;9.514;2022-08-11T13:02:14;72233.50;;;25.18
64600;BMP280;6553;48.412;9.514;2022-08-11T13:05:03;72229.63;;;25.17
64600;BMP280;6553;48.412;9.514;2022-08-11T13:07:30;72226.31;;;25.17
64600;BMP280;6553;48.412;9.514;2022-08-11T13:10:05;72228.56;;;25.16
64600;BMP280;6553;48.412;9.514;2022-08-11T13:12:34;72227.91;;;25.18
64600;BMP280;6553;48.412;9.514;2022-08-11T13:15:21;72227.91;;;25.18
64600;BMP280;6553;48.412;9.514;2022-08-11T13:17:50;72231.91;;;25.17
64600;BMP280;6553;48.412;9.514;2022-08-11T13:20:21;72230.19;;;25.18
64600;BMP280;6553;48.412;9.514;2022-08-11T13:22:54;72234.03;;;25.19
64600;BMP280;6553;48.412;9.514;2022-08-11T13:25:23;72232.97;;;25.18
64600;BMP280;6553;48.412;9.514;2022-08-11T13:27:54;72235.63;;;25.20
64600;BMP280;6553;48.412;9.514;2022-08-11T13:30:24;72232.97;;;25.18
64600;BMP280;6553;48.412;9.514;2022-08-11T13:33:10;72227.22;;;25.20
64600;BMP280;6553;48.412;9.514;2022-08-11T13:35:37;72232.97;;;25.18
64600;BMP280;6553;48.412;9.514;2022-08-11T13:38:05;72232.28;;;25.20
64600;BMP280;6553;48.412;9.514;2022-08-11T13:40:31;72229.63;;;25.17
64600;BMP280;6553;48.412;9.514;2022-08-11T13:42:58;72230.72;;;25.18
64600;BMP280;6553;48.412;9.514;2022-08-11T13:45:26;72234.03;;;25.19
64600;BMP280;6553;48.412;9.514;2022-08-11T13:47:55;72233.91;;;25.21
64600;BMP280;6553;48.412;9.514;2022-08-11T13:50:25;72236.69;;;25.21
64600;BMP280;6553;48.412;9.514;2022-08-11T13:53:15;72236.16;;;25.21
64600;BMP280;6553;48.412;9.514;2022-08-11T13:55:43;72233.63;;;25.16
64600;BMP280;6553;48.412;9.514;2022-08-11T13:58:11;72229.63;;;25.17
64600;BMP280;6553;48.412;9.514;2022-08-11T14:00:38;72229.63;;;25.17
64600;BMP280;6553;48.412;9.514;2022-08-11T14:03:09;72231.78;;;25.19
64600;BMP280;6553;48.412;9.514;2022-08-11T14:05:41;72228.97;;;25.19
64600;BMP280;6553;48.412;9.514;2022-08-11T14:08:19;72235.06;;;25.20
64600;BMP280;6553;48.412;9.514;2022-08-11T14:10:48;72230.56;;;25.21
64600;BMP280;6553;48.412;9.514;2022-08-11T14:13:39;72234.97;;;25.22
64600;BMP280;6553;48.412;9.514;2022-08-11T14:16:15;72234.03;;;25.19
64600;BMP280;6553;48.412;9.514;2022-08-11T14:18:46;72232.81;;;25.20
64600;BMP280;6553;48.412;9.514;2022-08-11T14:21:15;72235.63;;;25.20
64600;BMP280;6553;48.412;9.514;2022-08-11T14:24:02;72234.44;;;25.22
64600;BMP280;6553;48.412;9.514;2022-08-11T14:26:30;72235.50;;;25.23
64600;BMP280;6553;48.412;9.514;2022-08-11T14:29:13;72235.06;;;25.20
64600;BMP280;6553;48.412;9.514;2022-08-11T14:31:51;72238.28;;;25.23
64600;BMP280;6553;48.412;9.514;2022-08-11T14:34:22;72237.09;;;25.24
64600;BMP280;6553;48.412;9.514;2022-08-11T14:36:52;72239.88;;;25.24
64600;BMP280;6553;48.412;9.514;2022-08-11T14:39:24;72237.09;;;25.24
64600;BMP280;6553;48.412;9.514;2022-08-11T14:41:57;72240.41;;;25.25
64600;BMP280;6553;48.412;9.514;2022-08-11T14:44:46;72242.53;;;25.27
64600;BMP280;6553;48.412;9.514;2022-08-11T14:47:38;72237.63;;;25.25
64600;BMP280;6553;48.412;9.514;2022-08-11T14:50:10;72236.00;;;25.23
64600;BMP280;6553;48.412;9.514;2022-08-11T14:53:07;72237.09;;;25.24
64600;BMP280;6553;48.412;9.514;2022-08-11T14:55:40;72236.53;;;25.24
64600;BMP280;6553;48.412;9.514;2022-08-11T14:58:29;72238.00;;;25.28
64600;BMP280;6553;48.412;9.514;2022-08-11T15:00:59;72237.63;;;25.25
64600;BMP280;6553;48.412;9.514;2022-08-11T15:03:30;72242.13;;;25.24
64600;BMP280;6553;48.412;9.514;2022-08-11T15:06:02;72239.19;;;25.26
64600;BMP280;6553;48.412;9.514;2022-08-11T15:08:37;72237.63;;;25.25
64600;BMP280;6553;48.412;9.514;2022-08-11T15:11:29;72238.16;;;25.25
64600;BMP280;6553;48.412;9.514;2022-08-11T15:14:16;72236.53;;;25.24
64600;BMP280;6553;48.412;9.514;2022-08-11T15:17:05;72238.69;;;25.26
64600;BMP280;6553;48.412;9.514;2022-08-11T15:19:38;72238.16;;;25.25
64600;BMP280;6553;48.412;9.514;2022-08-11T15:22:25;72239.19;;;25.26
64600;BMP280;6553;48.412;9.514;2022-08-11T15:25:10;72238.16;;;25.25
64600;BMP280;6553;48.412;9.514;2022-08-11T15:27:38;72239.19;;;25.26
64600;BMP280;6553;48.412;9.514;2022-08-11T15:30:25;72242.00;;;25.26
64600;BMP280;6553;48.412;9.514;2022-08-11T15:33:13;72238.16;;;25.25
64600;BMP280;6553;48.412;9.514;2022-08-11T15:36:04;72236.53;;;25.24
64600;BMP280;6553;48.412;9.514;2022-08-11T15:39:02;72238.69;;;25.26
64600;BMP280;6553;48.412;9.514;2022-08-11T15:41:42;72241.50;;;25.26
64600;BMP280;6553;48.412;9.514;2022-08-11T15:44:33;72243.59;;;25.28
64600;BMP280;6553;48.412;9.514;2022-08-11T15:47:28;72233.59;;;25.26
64600;BMP280;6553;48.412;9.514;2022-08-11T15:50:00;72238.00;;;25.28
64600;BMP280;6553;48.412;9.514;2022-08-11T15:52:32;72237.47;;;25.27
64600;BMP280;6553;48.412;9.514;2022-08-11T15:54:59;72243.22;;;25.25
64600;BMP280;6553;48.412;9.514;2022-08-11T15:57:29;72239.72;;;25.27
64600;BMP280;6553;48.412;9.514;2022-08-11T16:00:14;72242.53;;;25.27
64600;BMP280;6553;48.412;9.514;2022-08-11T16:03:02;72238.69;;;25.26
64600;BMP280;6553;48.412;9.514;2022-08-11T16:05:47;72241.34;;;25.28
64600;BMP280;6553;48.412;9.514;2022-08-11T16:08:20;72240.28;;;25.27
64600;BMP280;6553;48.412;9.514;2022-08-11T16:10:51;72241.88;;;25.29
64600;BMP280;6553;48.412;9.514;2022-08-11T16:13:22;72240.28;;;25.27
64600;BMP280;6553;48.412;9.514;2022-08-11T16:15:53;72240.41;;;25.25
64600;BMP280;6553;48.412;9.514;2022-08-11T16:18:43;72237.47;;;25.27
64600;BMP280;6553;48.412;9.514;2022-08-11T16:21:22;72239.72;;;25.27
64600;BMP280;6553;48.412;9.514;2022-08-11T16:23:53;72243.59;;;25.28
64600;BMP280;6553;48.412;9.514;2022-08-11T16:26:22;72237.63;;;25.25
64600;BMP280;6553;48.412;9.514;2022-08-11T16:28:55;72239.72;;;25.27
64600;BMP280;6553;48.412;9.514;2022-08-11T16:31:23;72245.22;;;25.29
64600;BMP280;6553;48.412;9.514;2022-08-11T16:33:52;72240.81;;;25.28
64600;BMP280;6553;48.412;9.514;2022-08-11T16:36:20;72245.22;;;25.29
64600;BMP280;6553;48.412;9.514;2022-08-11T16:39:07;72243.59;;;25.28
64600;BMP280;6553;48.412;9.514;2022-08-11T16:41:35;72241.88;;;25.29
64600;BMP280;6553;48.412;9.514;2022-08-11T16:44:21;72236.41;;;25.26
64600;BMP280;6553;48.412;9.514;2022-08-11T16:47:12;72236.94;;;25.27
64600;BMP280;6553;48.412;9.514;2022-08-11T16:49:52;72244.69;;;25.29
64600;BMP280;6553;48.412;9.514;2022-08-11T16:52:21;72244.13;;;25.28
64600;BMP280;6553;48.412;9.514;2022-08-11T16:54:48;72241.34;;;25.28
64600;BMP280;6553;48.412;9.514;2022-08-11T16:57:25;72240.28;;;25.27
64600;BMP280;6553;48.412;9.514;2022-08-11T17:00:14;72246.41;;;25.28
64600;BMP280;6553;48.412;9.514;2022-08-11T17:02:51;72242.53;;;25.27
64600;BMP280;6553;48.412;9.514;2022-08-11T17:05:49;72238.00;;;25.28
64600;BMP280;6553;48.412;9.514;2022-08-11T17:08:45;72246.25;;;25.30
64600;BMP280;6553;48.412;9.514;2022-08-11T17:11:38;72241.34;;;25.28
64600;BMP280;6553;48.412;9.514;2022-08-11T17:14:48;72239.09;;;25.29
64600;BMP280;6553;48.412;9.514;2022-08-11T17:17:17;72245.22;;;25.29
64600;BMP280;6553;48.412;9.514;2022-08-11T17:19:50;72245.22;;;25.29
64600;BMP280;6553;48.412;9.514;2022-08-11T17:22:19;72249.03;;;25.30
64600;BMP280;6553;48.412;9.514;2022-08-11T17:25:07;72239.63;;;25.29
64600;BMP280;6553;48.412;9.514;2022-08-11T17:27:34;72241.34;;;25.28
64600;BMP280;6553;48.412;9.514;2022-08-11T17:30:05;72237.47;;;25.27
64600;BMP280;6553;48.412;9.514;2022-08-11T17:32:42;72240.81;;;25.28
64600;BMP280;6553;48.412;9.514;2022-08-11T17:35:40;72244.69;;;25.29
64600;BMP280;6553;48.412;9.514;2022-08-11T17:38:17;72243.06;;;25.27
64600;BMP280;6553;48.412;9.514;2022-08-11T17:40:53;72247.47;;;25.29
64600;BMP280;6553;48.412;9.514;2022-08-11T17:43:41;72243.59;;;25.28
64600;BMP280;6553;48.412;9.514;2022-08-11T17:46:26;72245.22;;;25.29
64600;BMP280;6553;48.412;9.514;2022-08-11T17:49:13;72241.34;;;25.28
64600;BMP280;6553;48.412;9.514;2022-08-11T17:51:43;72239.19;;;25.26
64600;BMP280;6553;48.412;9.514;2022-08-11T17:54:30;72242.53;;;25.27
64600;BMP280;6553;48.412;9.514;2022-08-11T17:57:16;72242.53;;;25.27
64600;BMP280;6553;48.412;9.514;2022-08-11T18:00:05;72242.53;;;25.27
64600;BMP280;6553;48.412;9.514;2022-08-11T18:02:42;72240.94;;;25.25
64600;BMP280;6553;48.412;9.514;2022-08-11T18:05:31;72243.59;;;25.28
64600;BMP280;6553;48.412;9.514;2022-08-11T18:08:03;72243.59;;;25.28
64600;BMP280;6553;48.412;9.514;2022-08-11T18:10:48;72239.19;;;25.26
64600;BMP280;6553;48.412;9.514;2022-08-11T18:13:36;72242.53;;;25.27
64600;BMP280;6553;48.412;9.514;2022-08-11T18:16:22;72239.88;;;25.24